Pagrindinis puslapis
METAR-TAF:

METAR-TAF

Oro uostai :

La Argelia

Locha, Ekvadoras

platuma: 03-59-45S, ilguma: 079-22-19W, Aukštis: 1236 m

Dabartinis oras

Ataskaita buvo paskelbta 4 valandos ir 2 minutes, ne 19:00 UTC
Vėjas 14 kt iš Šiaurės
Temperatūra 26°C
Drėgmė 61%
Slėgis 1014 hPa
Matomumas 10 km arba daugiau
Su prošvaistėmis ne aukštis 4000 ft
Su prošvaistėmis ne aukštis 10000 ft

METAR: SECA 251900Z 35014KT 9999 BKN040 BKN100 26/18 Q1014

Laikas: 18:02 (23:02 UTC)


TAF: trūkstamas

Orai ataskaitas ir orų prognozės (METAR, TAF).

turimą stotys yra geltonos ir raudonos taškus žemėlapyje.

Perkelti pele per norėdami pamatyti stoties vardą.

Tada spustelėkite, norėdami matyti oro stebėjimo ir prognozės.

Norėdami pakeisti žemėlapį: spustelėkite ant žalios mygtukų su juodo kryžiaus žemyn,; žalią mygtuką su brūkšneliu, jei norite nutolinti; arba žalių rodyklių gretimoms žemėlapius.


METAR-TAF: